createdAt,value
2018-12-10T00:00:43.810Z,0.00
2018-12-10T00:01:43.800Z,0.00
2018-12-10T00:02:43.809Z,0.00
2018-12-10T00:03:43.803Z,0.00
2018-12-10T00:04:43.802Z,0.00
2018-12-10T00:05:43.801Z,0.00
2018-12-10T00:06:43.799Z,0.00
2018-12-10T00:07:43.794Z,0.00
2018-12-10T00:08:43.793Z,0.00
2018-12-10T00:09:43.781Z,0.00
2018-12-10T00:10:43.787Z,0.00
2018-12-10T00:11:43.785Z,0.00
2018-12-10T00:12:43.793Z,0.00
2018-12-10T00:13:43.782Z,0.00
2018-12-10T00:14:43.770Z,0.00
2018-12-10T00:15:43.777Z,0.00
2018-12-10T00:16:43.772Z,0.00
2018-12-10T00:17:43.771Z,0.00
2018-12-10T00:18:43.772Z,0.00
2018-12-10T00:19:43.765Z,0.00
2018-12-10T00:20:43.764Z,0.00
2018-12-10T00:21:43.766Z,0.00
2018-12-10T00:22:43.760Z,0.00
2018-12-10T00:23:43.760Z,0.00
2018-12-10T00:24:43.759Z,0.00
2018-12-10T00:25:43.759Z,0.00
2018-12-10T00:26:43.750Z,0.00
2018-12-10T00:27:43.755Z,0.00
2018-12-10T00:28:43.744Z,0.00
2018-12-10T00:29:43.734Z,0.00
2018-12-10T00:30:43.733Z,0.00
2018-12-10T00:31:43.737Z,0.00
2018-12-10T00:32:43.729Z,0.00
2018-12-10T00:33:43.731Z,0.00
2018-12-10T00:34:43.739Z,0.00
2018-12-10T00:35:43.732Z,0.00
2018-12-10T00:36:43.715Z,0.00
2018-12-10T00:37:43.726Z,0.00
2018-12-10T00:38:43.792Z,0.00
2018-12-10T00:39:43.724Z,0.00
2018-12-10T00:40:43.710Z,0.00
2018-12-10T00:41:43.719Z,0.00
2018-12-10T00:42:43.711Z,0.00
2018-12-10T00:43:43.712Z,0.00
2018-12-10T00:44:43.714Z,0.00
2018-12-10T00:45:43.710Z,0.00
2018-12-10T00:46:43.701Z,0.00
2018-12-10T00:47:43.707Z,0.00
2018-12-10T00:48:43.699Z,0.00
2018-12-10T00:49:43.704Z,0.00
2018-12-10T00:50:43.706Z,0.00
2018-12-10T00:51:43.693Z,0.00
2018-12-10T00:52:43.692Z,0.00
2018-12-10T00:53:43.690Z,0.00
2018-12-10T00:54:43.692Z,0.00
2018-12-10T00:55:43.685Z,0.00
2018-12-10T00:56:43.681Z,0.00
2018-12-10T00:57:43.678Z,0.00
2018-12-10T00:58:43.678Z,0.00
2018-12-10T00:59:43.684Z,0.00
2018-12-10T01:00:43.672Z,0.00
2018-12-10T01:01:43.663Z,0.00
2018-12-10T01:02:43.671Z,0.00
2018-12-10T01:03:43.677Z,0.00
2018-12-10T01:04:43.664Z,0.00
2018-12-10T01:05:43.665Z,0.00
2018-12-10T01:06:43.658Z,0.00
2018-12-10T01:07:43.653Z,0.00
2018-12-10T01:08:43.650Z,0.00
2018-12-10T01:09:43.651Z,0.00
2018-12-10T01:10:43.657Z,0.00
2018-12-10T01:11:43.647Z,0.00
2018-12-10T01:12:43.637Z,0.00
2018-12-10T01:13:43.641Z,0.00
2018-12-10T01:14:43.639Z,0.00
2018-12-10T01:15:43.643Z,0.00
2018-12-10T01:16:43.640Z,0.00
2018-12-10T01:17:43.637Z,0.00
2018-12-10T01:18:43.637Z,0.00
2018-12-10T01:19:43.630Z,0.00
2018-12-10T01:20:43.628Z,0.00
2018-12-10T01:21:43.624Z,0.00
2018-12-10T01:22:43.624Z,0.00
2018-12-10T01:23:43.611Z,0.00
2018-12-10T01:24:43.610Z,0.00
2018-12-10T01:25:43.603Z,0.00
2018-12-10T01:26:43.608Z,0.00
2018-12-10T01:27:43.626Z,0.00
2018-12-10T01:28:43.596Z,0.00
2018-12-10T01:29:43.596Z,0.00
2018-12-10T01:30:43.600Z,0.00
2018-12-10T01:31:43.590Z,0.00
2018-12-10T01:32:43.599Z,0.00
2018-12-10T01:33:43.590Z,0.00
2018-12-10T01:34:43.587Z,0.00
2018-12-10T01:35:43.597Z,0.00
2018-12-10T01:36:43.586Z,0.00
2018-12-10T01:37:43.578Z,0.00
2018-12-10T01:38:43.581Z,0.00
2018-12-10T01:39:43.594Z,0.00
2018-12-10T01:40:43.579Z,0.00
2018-12-10T01:41:43.569Z,0.00
2018-12-10T01:42:43.574Z,0.00
2018-12-10T01:43:43.575Z,0.00
2018-12-10T01:44:43.569Z,0.00
2018-12-10T01:45:43.561Z,0.00
2018-12-10T01:46:43.567Z,0.00
2018-12-10T01:47:43.597Z,0.00
2018-12-10T01:48:43.548Z,0.00
2018-12-10T01:49:43.551Z,0.00
2018-12-10T01:50:43.576Z,0.00
2018-12-10T01:51:43.541Z,0.00
2018-12-10T01:52:43.554Z,0.00
2018-12-10T01:53:43.594Z,0.00
2018-12-10T01:54:43.556Z,0.00
2018-12-10T01:55:43.555Z,0.00
2018-12-10T01:56:43.558Z,0.00
2018-12-10T01:57:43.542Z,0.00
2018-12-10T01:58:43.538Z,0.00
2018-12-10T01:59:43.524Z,0.00
2018-12-10T02:00:43.526Z,0.00
2018-12-10T02:01:43.549Z,0.00
2018-12-10T02:02:43.514Z,0.00
2018-12-10T02:03:43.531Z,0.00
2018-12-10T02:04:43.508Z,0.00
2018-12-10T02:05:43.511Z,0.00
2018-12-10T02:06:43.525Z,0.00
2018-12-10T02:07:43.520Z,0.00
2018-12-10T02:08:43.507Z,0.00
2018-12-10T02:09:43.495Z,0.00
2018-12-10T02:10:43.501Z,0.00
2018-12-10T02:11:43.511Z,0.00
2018-12-10T02:12:43.493Z,0.00
2018-12-10T02:13:43.503Z,0.00
2018-12-10T02:14:43.498Z,0.00
2018-12-10T02:15:43.495Z,0.00
2018-12-10T02:16:43.484Z,0.00
2018-12-10T02:17:43.510Z,0.00
2018-12-10T02:18:43.527Z,0.00
2018-12-10T02:19:43.481Z,0.00
2018-12-10T02:20:43.478Z,0.00
2018-12-10T02:21:43.478Z,0.00
2018-12-10T02:22:43.474Z,0.00
2018-12-10T02:23:43.481Z,0.00
2018-12-10T02:24:43.496Z,0.00
2018-12-10T02:25:43.456Z,0.00
2018-12-10T02:26:43.464Z,0.00
2018-12-10T02:27:43.463Z,0.00
2018-12-10T02:28:43.462Z,0.00
2018-12-10T02:29:43.457Z,0.00
2018-12-10T02:30:43.475Z,0.00
2018-12-10T02:31:43.464Z,0.00
2018-12-10T02:32:43.437Z,0.00
2018-12-10T02:33:43.447Z,0.00
2018-12-10T02:34:43.439Z,0.00
2018-12-10T02:35:43.443Z,0.00
2018-12-10T02:36:43.438Z,0.00
2018-12-10T02:37:43.448Z,0.00
2018-12-10T02:38:43.432Z,0.00
2018-12-10T02:39:43.434Z,0.00
2018-12-10T02:40:43.429Z,0.00
2018-12-10T02:41:43.435Z,0.00
2018-12-10T02:42:43.448Z,0.00
2018-12-10T02:43:43.422Z,0.00
2018-12-10T02:44:43.435Z,0.00
2018-12-10T02:45:43.410Z,0.00
2018-12-10T02:46:43.415Z,0.00
2018-12-10T02:47:43.421Z,0.00
2018-12-10T02:48:43.407Z,0.00
2018-12-10T02:49:43.406Z,0.00
2018-12-10T02:50:43.400Z,0.00
2018-12-10T02:51:43.405Z,0.00
2018-12-10T02:52:43.402Z,0.00
2018-12-10T02:53:43.396Z,0.00
2018-12-10T02:54:43.393Z,0.00
2018-12-10T02:55:43.405Z,0.00
2018-12-10T02:56:43.389Z,0.00
2018-12-10T02:57:43.401Z,0.00
2018-12-10T02:58:43.383Z,0.00
2018-12-10T02:59:43.385Z,0.00
2018-12-10T03:00:43.388Z,0.00
2018-12-10T03:01:43.389Z,0.00
2018-12-10T03:02:43.370Z,0.00
2018-12-10T03:03:43.361Z,0.00
2018-12-10T03:04:43.369Z,0.00
2018-12-10T03:05:43.366Z,0.00
2018-12-10T03:06:43.362Z,0.00
2018-12-10T03:07:43.361Z,0.00
2018-12-10T03:08:43.353Z,0.00
2018-12-10T03:09:43.347Z,0.00
2018-12-10T03:10:43.347Z,0.00
2018-12-10T03:11:43.353Z,0.00
2018-12-10T03:12:43.349Z,0.00
2018-12-10T03:13:43.334Z,0.00
2018-12-10T03:14:43.344Z,0.00
2018-12-10T03:15:43.343Z,0.00
2018-12-10T03:16:43.330Z,0.00
2018-12-10T03:17:43.326Z,0.00
2018-12-10T03:18:43.327Z,0.00
2018-12-10T03:19:43.324Z,0.00
2018-12-10T03:20:43.323Z,0.00
2018-12-10T03:21:43.323Z,0.00
2018-12-10T03:22:43.311Z,0.00
2018-12-10T03:23:43.323Z,0.00
2018-12-10T03:24:43.312Z,0.00
2018-12-10T03:25:43.308Z,0.00
2018-12-10T03:26:43.310Z,0.00
2018-12-10T03:27:43.312Z,0.00
2018-12-10T03:28:43.306Z,0.00
2018-12-10T03:29:43.308Z,0.00
2018-12-10T03:30:43.326Z,0.00
2018-12-10T03:31:43.311Z,0.00
2018-12-10T03:32:43.285Z,0.00
2018-12-10T03:33:43.281Z,0.00
2018-12-10T03:34:43.282Z,0.00
2018-12-10T03:35:43.285Z,0.00
2018-12-10T03:36:43.282Z,0.00
2018-12-10T03:37:43.290Z,0.00
2018-12-10T03:38:43.288Z,0.00
2018-12-10T03:39:43.267Z,0.00
2018-12-10T03:40:43.266Z,0.00
2018-12-10T03:41:43.262Z,0.00
2018-12-10T03:42:43.262Z,0.00
2018-12-10T03:43:43.266Z,0.00
2018-12-10T03:44:43.254Z,0.00
2018-12-10T03:45:43.262Z,0.00
2018-12-10T03:46:43.254Z,0.00
2018-12-10T03:47:43.252Z,0.00
2018-12-10T03:48:43.254Z,0.00
2018-12-10T03:49:43.246Z,0.00
2018-12-10T03:50:43.240Z,0.00
2018-12-10T03:51:43.255Z,0.00
2018-12-10T03:52:43.241Z,0.00
2018-12-10T03:53:43.237Z,0.00
2018-12-10T03:54:43.236Z,0.00
2018-12-10T03:55:43.235Z,0.00
2018-12-10T03:56:43.227Z,0.00
2018-12-10T03:57:43.220Z,0.00
2018-12-10T03:58:43.226Z,0.00
2018-12-10T03:59:43.241Z,0.00
2018-12-10T04:00:43.218Z,0.00
2018-12-10T04:01:43.223Z,0.00
2018-12-10T04:02:43.213Z,0.00
2018-12-10T04:03:43.212Z,0.00
2018-12-10T04:04:43.210Z,0.00
2018-12-10T04:05:43.206Z,0.00
2018-12-10T04:06:43.202Z,0.00
2018-12-10T04:07:43.208Z,0.00
2018-12-10T04:08:43.203Z,0.00
2018-12-10T04:09:43.213Z,0.00
2018-12-10T04:10:43.188Z,0.00
2018-12-10T04:11:43.184Z,0.00
2018-12-10T04:12:43.188Z,0.00
2018-12-10T04:13:43.177Z,0.00
2018-12-10T04:14:45.018Z,0.00
2018-12-10T04:15:43.182Z,0.00
2018-12-10T04:16:43.178Z,0.00
2018-12-10T04:17:43.169Z,0.00
2018-12-10T04:18:43.172Z,0.00
2018-12-10T04:19:43.167Z,0.00
2018-12-10T04:20:43.161Z,0.00
2018-12-10T04:21:43.161Z,0.00
2018-12-10T04:22:43.161Z,0.00
2018-12-10T04:23:43.163Z,0.00
2018-12-10T04:24:43.163Z,0.00
2018-12-10T04:25:43.152Z,0.00
2018-12-10T04:26:43.162Z,0.00
2018-12-10T04:27:43.151Z,0.00
2018-12-10T04:28:43.146Z,0.00
2018-12-10T04:29:43.140Z,0.00
2018-12-10T04:30:43.140Z,0.00
2018-12-10T04:31:43.142Z,0.00
2018-12-10T04:32:43.139Z,0.00
2018-12-10T04:33:43.124Z,0.00
2018-12-10T04:34:43.206Z,0.00
2018-12-10T04:35:43.130Z,0.00
2018-12-10T04:36:43.119Z,0.00
2018-12-10T04:37:43.129Z,0.00
2018-12-10T04:38:43.115Z,0.00
2018-12-10T04:39:43.114Z,0.00
2018-12-10T04:40:43.112Z,0.00
2018-12-10T04:41:43.109Z,0.00
2018-12-10T04:42:43.115Z,0.00
2018-12-10T04:43:43.108Z,0.00
2018-12-10T04:44:43.092Z,0.00
2018-12-10T04:45:43.110Z,0.00
2018-12-10T04:46:43.110Z,0.00
2018-12-10T04:47:43.088Z,0.00
2018-12-10T04:48:43.115Z,0.00
2018-12-10T04:49:43.098Z,0.00
2018-12-10T04:50:43.079Z,0.00
2018-12-10T04:51:43.075Z,0.00
2018-12-10T04:52:43.089Z,0.00
2018-12-10T04:53:43.073Z,0.00
2018-12-10T04:54:43.077Z,0.00
2018-12-10T04:55:43.074Z,0.00
2018-12-10T04:56:43.066Z,0.00
2018-12-10T04:57:43.073Z,0.00
2018-12-10T04:58:43.064Z,0.00
2018-12-10T04:59:43.061Z,0.00
2018-12-10T05:00:43.053Z,0.00
2018-12-10T05:01:43.051Z,0.00
2018-12-10T05:02:43.054Z,0.00
2018-12-10T05:03:43.046Z,0.00
2018-12-10T05:04:43.047Z,0.00
2018-12-10T05:05:43.043Z,0.00
2018-12-10T05:06:43.050Z,0.00
2018-12-10T05:07:43.041Z,0.00
2018-12-10T05:08:43.032Z,0.00
2018-12-10T05:09:43.025Z,0.00
2018-12-10T05:10:43.045Z,0.00
2018-12-10T05:11:43.035Z,0.00
2018-12-10T05:12:43.027Z,0.00
2018-12-10T05:13:43.027Z,0.00
2018-12-10T05:14:43.032Z,0.00
2018-12-10T05:15:43.013Z,0.00
2018-12-10T05:16:43.015Z,0.00
2018-12-10T05:17:43.018Z,0.00
2018-12-10T05:18:43.055Z,0.00
2018-12-10T05:19:43.010Z,0.00
2018-12-10T05:20:42.997Z,0.00
2018-12-10T05:21:42.998Z,0.00
2018-12-10T05:22:42.990Z,0.00
2018-12-10T05:23:42.991Z,0.00
2018-12-10T05:24:42.987Z,0.00
2018-12-10T05:25:42.980Z,0.00
2018-12-10T05:26:42.992Z,0.00
2018-12-10T05:27:42.982Z,0.00
2018-12-10T05:28:42.985Z,0.00
2018-12-10T05:29:42.978Z,0.00
2018-12-10T05:30:42.969Z,0.00
2018-12-10T05:31:42.977Z,0.00
2018-12-10T05:32:42.963Z,0.00
2018-12-10T05:33:42.972Z,0.00
2018-12-10T05:34:42.959Z,0.00
2018-12-10T05:35:42.955Z,0.00
2018-12-10T05:36:42.968Z,0.00
2018-12-10T05:37:42.960Z,0.00
2018-12-10T05:38:42.966Z,0.00
2018-12-10T05:39:42.961Z,0.00
2018-12-10T05:40:42.961Z,0.00
2018-12-10T05:41:42.948Z,0.00
2018-12-10T05:42:42.938Z,0.00
2018-12-10T05:43:42.934Z,0.00
2018-12-10T05:44:42.945Z,0.00
2018-12-10T05:45:42.928Z,0.00
2018-12-10T05:46:42.931Z,0.00
2018-12-10T05:47:42.926Z,0.00
2018-12-10T05:48:42.936Z,0.00
2018-12-10T05:49:42.920Z,0.00
2018-12-10T05:50:42.923Z,0.00
2018-12-10T05:51:42.912Z,0.00
2018-12-10T05:52:42.919Z,0.00
2018-12-10T05:53:42.902Z,0.00
2018-12-10T05:54:42.908Z,0.00
2018-12-10T05:55:42.941Z,0.00
2018-12-10T05:56:42.898Z,0.00
2018-12-10T05:57:42.902Z,0.00
2018-12-10T05:58:42.897Z,0.00
2018-12-10T05:59:42.905Z,0.00
2018-12-10T06:00:42.892Z,0.00
2018-12-10T06:01:42.893Z,0.00
2018-12-10T06:02:42.888Z,0.00
2018-12-10T06:03:42.886Z,0.00
2018-12-10T06:04:42.880Z,0.00
2018-12-10T06:05:42.889Z,0.00
2018-12-10T06:06:42.881Z,0.00
2018-12-10T06:07:42.870Z,0.00
2018-12-10T06:08:42.869Z,0.00
2018-12-10T06:09:42.862Z,0.00
2018-12-10T06:10:42.867Z,0.00
2018-12-10T06:11:42.857Z,0.00
2018-12-10T06:12:42.861Z,0.00
2018-12-10T06:13:42.867Z,0.00
2018-12-10T06:14:42.852Z,0.00
2018-12-10T06:15:42.858Z,0.00
2018-12-10T06:16:42.857Z,0.00
2018-12-10T06:17:42.909Z,0.00
2018-12-10T06:18:42.837Z,0.00
2018-12-10T06:19:42.841Z,0.00
2018-12-10T06:20:42.837Z,0.00
2018-12-10T06:21:42.847Z,0.00
2018-12-10T06:22:42.831Z,0.00
2018-12-10T06:23:42.834Z,0.00
2018-12-10T06:24:42.839Z,0.00
2018-12-10T06:25:42.820Z,0.00
2018-12-10T06:26:42.825Z,0.00
2018-12-10T06:27:42.825Z,0.00
2018-12-10T06:28:43.741Z,0.00
2018-12-10T06:29:42.812Z,0.00
2018-12-10T06:30:42.805Z,0.00
2018-12-10T06:31:42.795Z,0.00
2018-12-10T06:32:42.800Z,0.00
2018-12-10T06:33:42.835Z,0.00
2018-12-10T06:34:42.804Z,0.00
2018-12-10T06:35:42.792Z,0.00
2018-12-10T06:36:42.782Z,0.00
2018-12-10T06:37:42.786Z,0.00
2018-12-10T06:38:42.780Z,0.00
2018-12-10T06:39:42.796Z,0.00
2018-12-10T06:40:42.790Z,0.00
2018-12-10T06:41:42.775Z,0.00
2018-12-10T06:42:42.771Z,0.00
2018-12-10T06:43:42.763Z,0.00
2018-12-10T06:44:42.774Z,0.00
2018-12-10T06:45:42.784Z,0.00
2018-12-10T06:46:42.760Z,0.00
2018-12-10T06:47:42.759Z,0.00
2018-12-10T06:48:42.749Z,0.00
2018-12-10T06:49:42.763Z,0.00
2018-12-10T06:50:42.772Z,0.00
2018-12-10T06:51:42.762Z,0.00
2018-12-10T06:52:42.757Z,0.00
2018-12-10T06:53:42.739Z,0.00
2018-12-10T06:54:42.740Z,0.00
2018-12-10T06:55:42.738Z,0.00
2018-12-10T06:56:42.798Z,0.00
2018-12-10T06:57:42.736Z,0.00
2018-12-10T06:58:42.732Z,0.00
2018-12-10T06:59:42.734Z,0.00
2018-12-10T07:00:42.729Z,0.00
2018-12-10T07:01:42.748Z,0.00
2018-12-10T07:02:42.707Z,0.00
2018-12-10T07:03:42.710Z,0.00
2018-12-10T07:04:42.723Z,0.00
2018-12-10T07:05:42.712Z,0.00
2018-12-10T07:06:42.711Z,0.00
2018-12-10T07:07:42.695Z,0.00
2018-12-10T07:08:42.700Z,0.00
2018-12-10T07:09:42.699Z,0.00
2018-12-10T07:10:42.686Z,0.00
2018-12-10T07:11:42.701Z,0.00
2018-12-10T07:12:42.713Z,0.00
2018-12-10T07:13:42.686Z,0.00
2018-12-10T07:14:42.678Z,0.00
2018-12-10T07:15:42.688Z,0.00
2018-12-10T07:16:42.683Z,0.00
2018-12-10T07:17:42.684Z,0.00
2018-12-10T07:18:42.672Z,0.00
2018-12-10T07:19:42.671Z,0.00
2018-12-10T07:20:42.668Z,0.00
2018-12-10T07:21:42.663Z,0.00
2018-12-10T07:22:42.688Z,0.00
2018-12-10T07:23:42.663Z,5.63
2018-12-10T07:24:42.651Z,5.63
2018-12-10T07:25:42.667Z,5.63
2018-12-10T07:26:42.652Z,5.63
2018-12-10T07:27:42.764Z,5.63
2018-12-10T07:28:42.640Z,5.63
2018-12-10T07:29:42.655Z,5.63
2018-12-10T07:30:42.644Z,5.63
2018-12-10T07:31:42.639Z,5.63
2018-12-10T07:32:42.633Z,11.25
2018-12-10T07:33:42.633Z,11.25
2018-12-10T07:34:42.643Z,11.25
2018-12-10T07:35:42.630Z,11.25
2018-12-10T07:36:42.618Z,11.25
2018-12-10T07:37:42.661Z,16.88
2018-12-10T07:38:42.618Z,16.88
2018-12-10T07:39:42.617Z,16.88
2018-12-10T07:40:42.622Z,16.88
2018-12-10T07:41:42.610Z,16.88
2018-12-10T07:42:42.604Z,22.50
2018-12-10T07:43:42.605Z,22.50
2018-12-10T07:44:42.598Z,16.88
2018-12-10T07:45:42.591Z,22.50
2018-12-10T07:46:42.593Z,22.50
2018-12-10T07:47:42.593Z,22.50
2018-12-10T07:48:42.671Z,22.50
2018-12-10T07:49:42.588Z,22.50
2018-12-10T07:50:42.581Z,22.50
2018-12-10T07:51:42.586Z,22.50
2018-12-10T07:52:42.576Z,28.13
2018-12-10T07:53:42.576Z,28.13
2018-12-10T07:54:42.575Z,33.75
2018-12-10T07:55:42.575Z,33.75
2018-12-10T07:56:42.567Z,39.38
2018-12-10T07:57:42.562Z,39.38
2018-12-10T07:58:42.559Z,39.38
2018-12-10T07:59:42.566Z,39.38
2018-12-10T08:00:42.554Z,39.38
2018-12-10T08:01:42.551Z,39.38
2018-12-10T08:02:42.555Z,39.38
2018-12-10T08:03:42.548Z,39.38
2018-12-10T08:04:42.543Z,39.38
2018-12-10T08:05:42.547Z,39.38
2018-12-10T08:06:42.536Z,33.75
2018-12-10T08:07:42.545Z,33.75
2018-12-10T08:08:42.528Z,39.38
2018-12-10T08:09:42.521Z,45.00
2018-12-10T08:10:42.532Z,50.63
2018-12-10T08:11:42.524Z,50.63
2018-12-10T08:12:42.528Z,50.63
2018-12-10T08:13:42.524Z,45.00
2018-12-10T08:14:42.540Z,39.38
2018-12-10T08:15:42.528Z,33.75
2018-12-10T08:16:42.666Z,33.75
2018-12-10T08:17:42.592Z,33.75
2018-12-10T08:18:42.532Z,33.75
2018-12-10T08:19:42.541Z,33.75
2018-12-10T08:20:42.516Z,33.75
2018-12-10T08:21:42.506Z,33.75
2018-12-10T08:22:42.507Z,33.75
2018-12-10T08:23:42.497Z,33.75
2018-12-10T08:24:42.496Z,39.38
2018-12-10T08:25:42.487Z,45.00
2018-12-10T08:26:42.495Z,50.63
2018-12-10T08:27:42.484Z,56.25
2018-12-10T08:28:42.484Z,67.50
2018-12-10T08:29:42.482Z,84.38
2018-12-10T08:30:42.487Z,112.50
2018-12-10T08:31:42.480Z,129.38
2018-12-10T08:32:42.473Z,135.00
2018-12-10T08:33:42.469Z,112.50
2018-12-10T08:34:42.469Z,129.38
2018-12-10T08:35:42.507Z,151.88
2018-12-10T08:36:42.468Z,163.13
2018-12-10T08:37:42.466Z,84.38
2018-12-10T08:38:42.458Z,146.25
2018-12-10T08:39:42.458Z,61.88
2018-12-10T08:40:42.468Z,56.25
2018-12-10T08:41:42.455Z,61.88
2018-12-10T08:42:42.455Z,61.88
2018-12-10T08:43:42.443Z,106.88
2018-12-10T08:44:42.443Z,123.75
2018-12-10T08:45:42.440Z,157.50
2018-12-10T08:46:42.446Z,157.50
2018-12-10T08:47:42.469Z,196.88
2018-12-10T08:48:42.462Z,208.13
2018-12-10T08:49:42.443Z,219.38
2018-12-10T08:50:42.437Z,236.25
2018-12-10T08:51:42.435Z,247.50
2018-12-10T08:52:42.434Z,270.00
2018-12-10T08:53:42.433Z,219.38
2018-12-10T08:54:42.425Z,292.50
2018-12-10T08:55:42.431Z,264.38
2018-12-10T08:56:42.433Z,163.13
2018-12-10T08:57:42.427Z,208.13
2018-12-10T08:58:42.430Z,219.38
2018-12-10T08:59:42.441Z,106.88
2018-12-10T09:00:42.427Z,67.50
2018-12-10T09:01:42.430Z,33.75
2018-12-10T09:02:42.422Z,28.13
2018-12-10T09:03:42.418Z,28.13
2018-12-10T09:04:42.428Z,33.75
2018-12-10T09:05:42.426Z,33.75
2018-12-10T09:06:42.447Z,33.75
2018-12-10T09:07:42.418Z,45.00
2018-12-10T09:08:42.497Z,45.00
2018-12-10T09:09:42.426Z,50.63
2018-12-10T09:10:42.425Z,67.50
2018-12-10T09:11:42.420Z,90.00
2018-12-10T09:12:46.984Z,118.13
2018-12-10T09:13:42.415Z,101.25
2018-12-10T09:14:42.415Z,106.88
2018-12-10T09:15:42.421Z,118.13
2018-12-10T09:16:42.408Z,135.00
2018-12-10T09:17:42.418Z,123.75
2018-12-10T09:18:42.415Z,101.25
2018-12-10T09:19:42.419Z,95.63
2018-12-10T09:20:42.431Z,90.00
2018-12-10T09:21:42.411Z,95.63
2018-12-10T09:22:42.416Z,129.38
2018-12-10T09:23:42.410Z,146.25
2018-12-10T09:24:42.403Z,202.50
2018-12-10T09:25:42.404Z,146.25
2018-12-10T09:26:42.404Z,157.50
2018-12-10T09:27:42.405Z,191.25
2018-12-10T09:28:42.405Z,146.25
2018-12-10T09:29:42.425Z,112.50
2018-12-10T09:30:42.391Z,101.25
2018-12-10T09:31:42.398Z,106.88
2018-12-10T09:32:42.393Z,101.25
2018-12-10T09:33:42.421Z,106.88
2018-12-10T09:34:42.406Z,118.13
2018-12-10T09:35:42.403Z,112.50
2018-12-10T09:36:42.411Z,106.88
2018-12-10T09:37:42.388Z,101.25
2018-12-10T09:38:42.388Z,101.25
2018-12-10T09:39:42.379Z,101.25
2018-12-10T09:40:42.381Z,95.63
2018-12-10T09:41:42.375Z,95.63
2018-12-10T09:42:42.602Z,106.88
2018-12-10T09:43:42.377Z,112.50
2018-12-10T09:44:42.388Z,112.50
2018-12-10T09:45:42.384Z,106.88
2018-12-10T09:46:42.391Z,129.38
2018-12-10T09:47:42.376Z,123.75
2018-12-10T09:48:42.372Z,140.63
2018-12-10T09:49:42.374Z,135.00
2018-12-10T09:50:42.384Z,135.00
2018-12-10T09:51:43.024Z,135.00
2018-12-10T09:52:42.373Z,146.25
2018-12-10T09:53:42.382Z,208.13
2018-12-10T09:54:42.375Z,241.88
2018-12-10T09:55:42.380Z,236.25
2018-12-10T09:56:42.371Z,230.63
2018-12-10T09:57:42.376Z,241.88
2018-12-10T09:58:42.364Z,286.88
2018-12-10T09:59:42.367Z,225.00
2018-12-10T10:00:42.361Z,225.00
2018-12-10T10:01:42.388Z,163.13
2018-12-10T10:02:42.356Z,140.63
2018-12-10T10:03:42.357Z,163.13
2018-12-10T10:04:42.372Z,264.38
2018-12-10T10:05:42.353Z,348.75
2018-12-10T10:06:43.918Z,421.88
2018-12-10T10:07:42.354Z,405.00
2018-12-10T10:08:42.344Z,393.75
2018-12-10T10:09:42.351Z,393.75
2018-12-10T10:10:42.354Z,416.25
2018-12-10T10:11:42.364Z,382.50
2018-12-10T10:12:42.354Z,382.50
2018-12-10T10:13:42.354Z,405.00
2018-12-10T10:14:42.350Z,410.63
2018-12-10T10:15:42.355Z,247.50
2018-12-10T10:16:42.377Z,140.63
2018-12-10T10:17:42.378Z,123.75
2018-12-10T10:18:42.364Z,112.50
2018-12-10T10:19:42.344Z,112.50
2018-12-10T10:20:42.346Z,95.63
2018-12-10T10:21:42.356Z,101.25
2018-12-10T10:22:42.352Z,106.88
2018-12-10T10:23:42.355Z,101.25
2018-12-10T10:24:42.351Z,101.25
2018-12-10T10:25:42.349Z,106.88
2018-12-10T10:26:42.352Z,112.50
2018-12-10T10:27:42.357Z,118.13
2018-12-10T10:28:42.352Z,101.25
2018-12-10T10:29:42.363Z,78.75
2018-12-10T10:30:43.995Z,56.25
2018-12-10T10:31:42.359Z,56.25
2018-12-10T10:32:42.352Z,73.13
2018-12-10T10:33:42.343Z,90.00
2018-12-10T10:34:42.634Z,101.25
2018-12-10T10:35:42.352Z,106.88
2018-12-10T10:36:44.555Z,118.13
2018-12-10T10:37:42.356Z,123.75
2018-12-10T10:38:42.361Z,140.63
2018-12-10T10:39:42.359Z,151.88
2018-12-10T10:40:42.347Z,129.38
2018-12-10T10:41:42.339Z,151.88
2018-12-10T10:42:42.346Z,157.50
2018-12-10T10:43:42.350Z,146.25
2018-12-10T10:44:42.356Z,151.88
2018-12-10T10:45:42.342Z,123.75
2018-12-10T10:46:42.354Z,101.25
2018-12-10T10:47:42.390Z,101.25
2018-12-10T10:48:42.334Z,101.25
2018-12-10T10:49:42.355Z,101.25
2018-12-10T10:50:42.337Z,84.38
2018-12-10T10:51:43.961Z,61.88
2018-12-10T10:52:42.344Z,61.88
2018-12-10T10:53:42.346Z,61.88
2018-12-10T10:54:42.341Z,56.25
2018-12-10T10:55:42.334Z,56.25
2018-12-10T10:56:42.328Z,78.75
2018-12-10T10:57:42.331Z,56.25
2018-12-10T10:58:42.330Z,56.25
2018-12-10T10:59:42.344Z,78.75
2018-12-10T11:00:42.337Z,78.75
2018-12-10T11:01:42.328Z,67.50
2018-12-10T11:02:42.324Z,56.25
2018-12-10T11:03:42.317Z,67.50
2018-12-10T11:04:42.331Z,101.25
2018-12-10T11:05:42.322Z,90.00
2018-12-10T11:06:42.315Z,101.25
2018-12-10T11:07:42.342Z,118.13
2018-12-10T11:08:42.315Z,73.13
2018-12-10T11:09:42.311Z,90.00
2018-12-10T11:10:42.314Z,61.88
2018-12-10T11:11:42.314Z,84.38
2018-12-10T11:12:42.320Z,118.13
2018-12-10T11:13:42.325Z,106.88
2018-12-10T11:14:42.322Z,129.38
2018-12-10T11:15:42.329Z,129.38
2018-12-10T11:16:42.435Z,174.38
2018-12-10T11:17:42.309Z,157.50
2018-12-10T11:18:42.298Z,129.38
2018-12-10T11:19:42.298Z,135.00
2018-12-10T11:20:42.292Z,123.75
2018-12-10T11:21:42.310Z,129.38
2018-12-10T11:22:42.299Z,112.50
2018-12-10T11:23:42.310Z,106.88
2018-12-10T11:24:42.286Z,112.50
2018-12-10T11:25:42.303Z,129.38
2018-12-10T11:26:42.290Z,90.00
2018-12-10T11:27:42.289Z,84.38
2018-12-10T11:28:42.291Z,95.63
2018-12-10T11:29:42.296Z,112.50
2018-12-10T11:30:42.292Z,123.75
2018-12-10T11:31:42.292Z,106.88
2018-12-10T11:32:42.278Z,90.00
2018-12-10T11:33:42.277Z,101.25
2018-12-10T11:34:42.285Z,151.88
2018-12-10T11:35:42.280Z,163.13
2018-12-10T11:36:42.289Z,168.75
2018-12-10T11:37:42.280Z,129.38
2018-12-10T11:38:42.272Z,84.38
2018-12-10T11:39:42.267Z,45.00
2018-12-10T11:40:42.283Z,33.75
2018-12-10T11:41:42.280Z,39.38
2018-12-10T11:42:42.281Z,39.38
2018-12-10T11:43:42.275Z,39.38
2018-12-10T11:44:42.261Z,28.13
2018-12-10T11:45:42.276Z,22.50
2018-12-10T11:46:42.272Z,50.63
2018-12-10T11:47:42.259Z,84.38
2018-12-10T11:48:42.254Z,84.38
2018-12-10T11:49:42.262Z,90.00
2018-12-10T11:50:42.257Z,56.25
2018-12-10T11:51:42.264Z,50.63
2018-12-10T11:52:42.251Z,45.00
2018-12-10T11:53:42.256Z,33.75
2018-12-10T11:54:42.271Z,28.13
2018-12-10T11:55:42.246Z,45.00
2018-12-10T11:56:42.264Z,50.63
2018-12-10T11:57:42.255Z,39.38
2018-12-10T11:58:42.258Z,50.63
2018-12-10T11:59:42.238Z,50.63
2018-12-10T12:00:42.239Z,61.88
2018-12-10T12:01:42.248Z,78.75
2018-12-10T12:02:42.242Z,56.25
2018-12-10T12:03:42.241Z,56.25
2018-12-10T12:04:42.245Z,50.63
2018-12-10T12:05:42.238Z,50.63
2018-12-10T12:06:42.242Z,45.00
2018-12-10T12:07:42.262Z,84.38
2018-12-10T12:08:42.250Z,56.25
2018-12-10T12:09:42.235Z,61.88
2018-12-10T12:10:42.237Z,61.88
2018-12-10T12:11:42.243Z,61.88
2018-12-10T12:12:42.226Z,73.13
2018-12-10T12:13:42.232Z,90.00
2018-12-10T12:14:42.227Z,90.00
2018-12-10T12:15:42.231Z,106.88
2018-12-10T12:16:42.252Z,106.88
2018-12-10T12:17:42.215Z,101.25
2018-12-10T12:18:42.211Z,106.88
2018-12-10T12:19:42.213Z,90.00
2018-12-10T12:20:42.219Z,101.25
2018-12-10T12:21:42.208Z,101.25
2018-12-10T12:22:42.309Z,73.13
2018-12-10T12:23:42.264Z,90.00
2018-12-10T12:24:42.223Z,90.00
2018-12-10T12:25:42.205Z,84.38
2018-12-10T12:26:42.210Z,84.38
2018-12-10T12:27:42.207Z,78.75
2018-12-10T12:28:42.200Z,78.75
2018-12-10T12:29:42.201Z,73.13
2018-12-10T12:30:42.197Z,101.25
2018-12-10T12:31:42.186Z,73.13
2018-12-10T12:32:42.193Z,73.13
2018-12-10T12:33:42.197Z,61.88
2018-12-10T12:34:42.190Z,61.88
2018-12-10T12:35:42.216Z,67.50
2018-12-10T12:36:42.181Z,73.13
2018-12-10T12:37:42.183Z,73.13
2018-12-10T12:38:42.189Z,61.88
2018-12-10T12:39:42.171Z,56.25
2018-12-10T12:40:42.188Z,67.50
2018-12-10T12:41:42.206Z,78.75
2018-12-10T12:42:42.180Z,78.75
2018-12-10T12:43:42.176Z,67.50
2018-12-10T12:44:42.169Z,73.13
2018-12-10T12:45:42.177Z,67.50
2018-12-10T12:46:42.169Z,67.50
2018-12-10T12:47:42.169Z,78.75
2018-12-10T12:48:42.166Z,90.00
2018-12-10T12:49:42.167Z,123.75
2018-12-10T12:50:42.164Z,146.25
2018-12-10T12:51:42.162Z,135.00
2018-12-10T12:52:42.182Z,118.13
2018-12-10T12:53:42.164Z,112.50
2018-12-10T12:54:42.160Z,151.88
2018-12-10T12:55:42.158Z,135.00
2018-12-10T12:56:42.151Z,90.00
2018-12-10T12:57:42.154Z,101.25
2018-12-10T12:58:42.149Z,90.00
2018-12-10T12:59:42.153Z,118.13
2018-12-10T13:00:42.309Z,123.75
2018-12-10T13:01:48.968Z,123.75
2018-12-10T13:02:42.146Z,118.13